sensor_id;sensor_type;location;lat;lon;timestamp;pressure;altitude;pressure_sealevel;temperature;humidity
55217;BME280;41086;46.736;15.666;2023-02-02T00:01:59;98504.59;;;-1.56;100.00
55217;BME280;41086;46.736;15.666;2023-02-02T00:04:32;98504.59;;;-1.54;100.00
55217;BME280;41086;46.736;15.666;2023-02-02T00:07:00;98503.63;;;-1.50;100.00
55217;BME280;41086;46.736;15.666;2023-02-02T00:09:30;98494.13;;;-1.51;100.00
55217;BME280;41086;46.736;15.666;2023-02-02T00:11:58;98507.97;;;-1.51;100.00
55217;BME280;41086;46.736;15.666;2023-02-02T00:14:26;98498.69;;;-1.63;100.00
55217;BME280;41086;46.736;15.666;2023-02-02T00:16:53;98512.41;;;-1.58;100.00
55217;BME280;41086;46.736;15.666;2023-02-02T00:19:23;98495.81;;;-1.50;100.00
55217;BME280;41086;46.736;15.666;2023-02-02T00:21:53;98463.16;;;-1.62;100.00
55217;BME280;41086;46.736;15.666;2023-02-02T00:24:20;98483.66;;;-1.48;100.00
55217;BME280;41086;46.736;15.666;2023-02-02T00:26:50;98485.34;;;-1.46;100.00
55217;BME280;41086;46.736;15.666;2023-02-02T00:29:20;98482.75;;;-1.46;100.00
55217;BME280;41086;46.736;15.666;2023-02-02T00:31:48;98475.09;;;-1.52;100.00
55217;BME280;41086;46.736;15.666;2023-02-02T00:34:15;98484.59;;;-1.52;100.00
55217;BME280;41086;46.736;15.666;2023-02-02T00:36:43;98468.50;;;-1.70;100.00
55217;BME280;41086;46.736;15.666;2023-02-02T00:39:14;98470.97;;;-1.64;100.00
55217;BME280;41086;46.736;15.666;2023-02-02T00:41:41;98478.84;;;-1.68;100.00
55217;BME280;41086;46.736;15.666;2023-02-02T00:44:08;98470.19;;;-1.67;100.00
55217;BME280;41086;46.736;15.666;2023-02-02T00:46:53;98467.66;;;-1.72;100.00
55217;BME280;41086;46.736;15.666;2023-02-02T00:49:21;98464.91;;;-1.63;100.00
55217;BME280;41086;46.736;15.666;2023-02-02T00:51:49;98469.69;;;-1.43;100.00
55217;BME280;41086;46.736;15.666;2023-02-02T00:54:16;98470.41;;;-1.36;100.00
55217;BME280;41086;46.736;15.666;2023-02-02T00:56:43;98463.56;;;-1.40;100.00
55217;BME280;41086;46.736;15.666;2023-02-02T00:59:10;98473.75;;;-1.29;100.00
55217;BME280;41086;46.736;15.666;2023-02-02T01:01:36;98469.38;;;-1.29;100.00
55217;BME280;41086;46.736;15.666;2023-02-02T01:04:03;98470.28;;;-1.30;100.00
55217;BME280;41086;46.736;15.666;2023-02-02T01:06:30;98464.13;;;-1.26;100.00
55217;BME280;41086;46.736;15.666;2023-02-02T01:08:57;98467.63;;;-1.27;100.00
55217;BME280;41086;46.736;15.666;2023-02-02T01:11:24;98471.91;;;-1.24;100.00
55217;BME280;41086;46.736;15.666;2023-02-02T01:13:52;98475.53;;;-1.33;100.00
55217;BME280;41086;46.736;15.666;2023-02-02T01:16:19;98404.44;;;-1.71;100.00
55217;BME280;41086;46.736;15.666;2023-02-02T01:18:49;98439.47;;;-1.48;100.00
55217;BME280;41086;46.736;15.666;2023-02-02T01:21:16;98437.66;;;-1.45;100.00
55217;BME280;41086;46.736;15.666;2023-02-02T01:23:43;98427.13;;;-1.39;100.00
55217;BME280;41086;46.736;15.666;2023-02-02T01:26:11;98417.53;;;-1.35;100.00
55217;BME280;41086;46.736;15.666;2023-02-02T01:28:39;98421.84;;;-1.34;100.00
55217;BME280;41086;46.736;15.666;2023-02-02T01:31:09;98421.81;;;-1.32;100.00
55217;BME280;41086;46.736;15.666;2023-02-02T01:33:37;98414.88;;;-1.34;100.00
55217;BME280;41086;46.736;15.666;2023-02-02T01:36:05;98414.81;;;-1.30;100.00
55217;BME280;41086;46.736;15.666;2023-02-02T01:38:32;98417.53;;;-1.35;100.00
55217;BME280;41086;46.736;15.666;2023-02-02T01:41:00;98426.09;;;-1.30;100.00
55217;BME280;41086;46.736;15.666;2023-02-02T01:45:58;98424.53;;;-1.39;100.00
55217;BME280;41086;46.736;15.666;2023-02-02T01:48:28;98381.06;;;-1.72;100.00
55217;BME280;41086;46.736;15.666;2023-02-02T01:51:00;98418.47;;;-1.39;100.00
55217;BME280;41086;46.736;15.666;2023-02-02T01:53:27;98416.94;;;-1.49;100.00
55217;BME280;41086;46.736;15.666;2023-02-02T01:55:57;98439.25;;;-1.39;100.00
55217;BME280;41086;46.736;15.666;2023-02-02T01:58:32;98431.53;;;-1.41;100.00
55217;BME280;41086;46.736;15.666;2023-02-02T02:01:00;98417.72;;;-1.44;100.00
55217;BME280;41086;46.736;15.666;2023-02-02T02:03:29;98424.72;;;-1.48;100.00
55217;BME280;41086;46.736;15.666;2023-02-02T02:06:02;98392.06;;;-1.60;100.00
55217;BME280;41086;46.736;15.666;2023-02-02T02:08:41;98409.97;;;-1.46;100.00
55217;BME280;41086;46.736;15.666;2023-02-02T02:11:09;98383.22;;;-1.52;100.00
55217;BME280;41086;46.736;15.666;2023-02-02T02:13:37;98407.94;;;-1.33;100.00
55217;BME280;41086;46.736;15.666;2023-02-02T02:22:29;98410.31;;;-1.63;100.00
55217;BME280;41086;46.736;15.666;2023-02-02T02:25:45;98401.34;;;-1.48;100.00
55217;BME280;41086;46.736;15.666;2023-02-02T02:28:56;98411.72;;;-1.48;100.00
55217;BME280;41086;46.736;15.666;2023-02-02T02:40:05;98376.56;;;-1.64;100.00
55217;BME280;41086;46.736;15.666;2023-02-02T02:42:38;98385.97;;;-1.59;100.00
55217;BME280;41086;46.736;15.666;2023-02-02T02:45:10;98364.41;;;-1.62;100.00
55217;BME280;41086;46.736;15.666;2023-02-02T02:47:40;98392.63;;;-1.47;100.00
55217;BME280;41086;46.736;15.666;2023-02-02T02:50:08;98396.97;;;-1.47;100.00
55217;BME280;41086;46.736;15.666;2023-02-02T02:52:35;98373.13;;;-1.65;100.00
55217;BME280;41086;46.736;15.666;2023-02-02T02:55:04;98384.13;;;-1.53;100.00
55217;BME280;41086;46.736;15.666;2023-02-02T02:57:59;98378.91;;;-1.52;100.00
55217;BME280;41086;46.736;15.666;2023-02-02T03:03:06;98383.28;;;-1.56;100.00
55217;BME280;41086;46.736;15.666;2023-02-02T03:08:32;98388.41;;;-1.51;100.00
55217;BME280;41086;46.736;15.666;2023-02-02T03:11:03;98377.44;;;-1.25;100.00
55217;BME280;41086;46.736;15.666;2023-02-02T03:13:31;98407.84;;;-0.90;100.00
55217;BME280;41086;46.736;15.666;2023-02-02T03:16:00;98409.47;;;-0.85;100.00
55217;BME280;41086;46.736;15.666;2023-02-02T03:18:29;98401.81;;;-0.93;100.00
55217;BME280;41086;46.736;15.666;2023-02-02T03:20:57;98397.53;;;-0.94;100.00
55217;BME280;41086;46.736;15.666;2023-02-02T03:23:24;98348.09;;;-1.31;100.00
55217;BME280;41086;46.736;15.666;2023-02-02T03:25:51;98380.97;;;-1.27;100.00
55217;BME280;41086;46.736;15.666;2023-02-02T03:28:18;98366.91;;;-1.20;100.00
55217;BME280;41086;46.736;15.666;2023-02-02T03:30:47;98379.13;;;-0.86;100.00
55217;BME280;41086;46.736;15.666;2023-02-02T03:33:14;98395.59;;;-0.52;100.00
55217;BME280;41086;46.736;15.666;2023-02-02T03:35:41;98388.16;;;-0.31;100.00
55217;BME280;41086;46.736;15.666;2023-02-02T03:38:08;98381.75;;;-0.88;100.00
55217;BME280;41086;46.736;15.666;2023-02-02T03:40:35;98354.16;;;-1.31;100.00
55217;BME280;41086;46.736;15.666;2023-02-02T03:43:02;98375.06;;;-0.98;100.00
55217;BME280;41086;46.736;15.666;2023-02-02T03:45:29;98369.41;;;-0.80;100.00
55217;BME280;41086;46.736;15.666;2023-02-02T03:47:57;98354.88;;;-1.24;100.00
55217;BME280;41086;46.736;15.666;2023-02-02T03:50:24;98373.28;;;-1.34;100.00
55217;BME280;41086;46.736;15.666;2023-02-02T03:52:51;98370.03;;;-1.43;100.00
55217;BME280;41086;46.736;15.666;2023-02-02T03:55:19;98382.59;;;-1.23;100.00
55217;BME280;41086;46.736;15.666;2023-02-02T03:57:46;98380.16;;;-0.92;100.00
55217;BME280;41086;46.736;15.666;2023-02-02T04:00:13;98384.84;;;-0.72;100.00
55217;BME280;41086;46.736;15.666;2023-02-02T04:02:40;98397.00;;;-0.38;100.00
55217;BME280;41086;46.736;15.666;2023-02-02T04:05:07;98393.66;;;-0.43;100.00
55217;BME280;41086;46.736;15.666;2023-02-02T04:07:33;98372.97;;;-0.48;100.00
55217;BME280;41086;46.736;15.666;2023-02-02T04:10:01;98390.72;;;-0.30;100.00
55217;BME280;41086;46.736;15.666;2023-02-02T04:12:27;98360.34;;;-0.31;100.00
55217;BME280;41086;46.736;15.666;2023-02-02T04:14:54;98360.63;;;0.22;100.00
55217;BME280;41086;46.736;15.666;2023-02-02T04:17:21;98388.78;;;0.10;100.00
55217;BME280;41086;46.736;15.666;2023-02-02T04:19:48;98395.31;;;0.25;100.00
55217;BME280;41086;46.736;15.666;2023-02-02T04:22:14;98368.69;;;0.43;100.00
55217;BME280;41086;46.736;15.666;2023-02-02T04:24:41;98380.22;;;0.94;100.00
55217;BME280;41086;46.736;15.666;2023-02-02T04:27:08;98402.06;;;0.89;100.00
55217;BME280;41086;46.736;15.666;2023-02-02T04:29:35;98392.63;;;0.57;100.00
55217;BME280;41086;46.736;15.666;2023-02-02T04:32:01;98396.09;;;0.27;100.00
55217;BME280;41086;46.736;15.666;2023-02-02T04:34:28;98388.19;;;0.00;100.00
55217;BME280;41086;46.736;15.666;2023-02-02T04:36:55;98384.59;;;-0.27;100.00
55217;BME280;41086;46.736;15.666;2023-02-02T04:39:22;98406.66;;;-0.42;100.00
55217;BME280;41086;46.736;15.666;2023-02-02T04:41:49;98414.31;;;-0.72;100.00
55217;BME280;41086;46.736;15.666;2023-02-02T04:44:15;98416.50;;;-0.89;100.00
55217;BME280;41086;46.736;15.666;2023-02-02T04:46:43;98390.50;;;-0.91;100.00
55217;BME280;41086;46.736;15.666;2023-02-02T04:49:11;98413.72;;;-0.81;100.00
55217;BME280;41086;46.736;15.666;2023-02-02T04:51:38;98405.34;;;-0.96;100.00
55217;BME280;41086;46.736;15.666;2023-02-02T04:54:06;98442.53;;;-0.91;100.00
55217;BME280;41086;46.736;15.666;2023-02-02T04:56:33;98435.03;;;-1.03;100.00
55217;BME280;41086;46.736;15.666;2023-02-02T04:59:00;98442.88;;;-1.06;100.00
55217;BME280;41086;46.736;15.666;2023-02-02T05:01:27;98454.22;;;-1.08;100.00
55217;BME280;41086;46.736;15.666;2023-02-02T05:03:56;98449.13;;;-1.15;100.00
55217;BME280;41086;46.736;15.666;2023-02-02T05:06:23;98463.88;;;-1.14;100.00
55217;BME280;41086;46.736;15.666;2023-02-02T05:08:50;98479.50;;;-1.15;100.00
55217;BME280;41086;46.736;15.666;2023-02-02T05:11:20;98463.41;;;-1.32;100.00
55217;BME280;41086;46.736;15.666;2023-02-02T05:13:52;98458.44;;;-1.43;100.00
55217;BME280;41086;46.736;15.666;2023-02-02T05:16:20;98496.19;;;-1.25;100.00
55217;BME280;41086;46.736;15.666;2023-02-02T05:18:53;98508.31;;;-1.24;100.00
55217;BME280;41086;46.736;15.666;2023-02-02T05:21:20;98509.94;;;-1.19;100.00
55217;BME280;41086;46.736;15.666;2023-02-02T05:23:47;98515.69;;;-1.06;100.00
55217;BME280;41086;46.736;15.666;2023-02-02T05:26:17;98511.34;;;-1.04;100.00
55217;BME280;41086;46.736;15.666;2023-02-02T05:28:45;98521.44;;;-0.90;100.00
55217;BME280;41086;46.736;15.666;2023-02-02T05:31:11;98550.50;;;-0.70;100.00
55217;BME280;41086;46.736;15.666;2023-02-02T05:33:38;98559.84;;;-0.61;100.00
55217;BME280;41086;46.736;15.666;2023-02-02T05:36:06;98564.56;;;-0.39;100.00
55217;BME280;41086;46.736;15.666;2023-02-02T05:38:33;98573.81;;;-0.26;100.00
55217;BME280;41086;46.736;15.666;2023-02-02T05:41:00;98581.06;;;-0.03;100.00
55217;BME280;41086;46.736;15.666;2023-02-02T05:43:29;98564.38;;;0.04;100.00
55217;BME280;41086;46.736;15.666;2023-02-02T05:45:56;98549.53;;;0.08;100.00
55217;BME280;41086;46.736;15.666;2023-02-02T05:48:23;98574.34;;;0.22;100.00
55217;BME280;41086;46.736;15.666;2023-02-02T05:51:03;98571.66;;;0.26;100.00
55217;BME280;41086;46.736;15.666;2023-02-02T05:53:31;98529.94;;;-0.09;100.00
55217;BME280;41086;46.736;15.666;2023-02-02T05:55:58;98571.59;;;0.27;100.00
55217;BME280;41086;46.736;15.666;2023-02-02T05:58:25;98579.28;;;0.33;100.00
55217;BME280;41086;46.736;15.666;2023-02-02T06:00:52;98577.44;;;0.38;100.00
55217;BME280;41086;46.736;15.666;2023-02-02T06:03:22;98570.38;;;0.42;100.00
55217;BME280;41086;46.736;15.666;2023-02-02T06:05:49;98563.59;;;0.35;100.00
55217;BME280;41086;46.736;15.666;2023-02-02T06:08:16;98583.25;;;0.48;100.00
55217;BME280;41086;46.736;15.666;2023-02-02T06:10:43;98596.25;;;0.50;100.00
55217;BME280;41086;46.736;15.666;2023-02-02T06:13:10;98594.59;;;0.47;100.00
55217;BME280;41086;46.736;15.666;2023-02-02T06:15:37;98608.22;;;0.57;100.00
55217;BME280;41086;46.736;15.666;2023-02-02T06:18:04;98610.81;;;0.57;100.00
55217;BME280;41086;46.736;15.666;2023-02-02T06:20:34;98609.13;;;0.56;100.00
55217;BME280;41086;46.736;15.666;2023-02-02T06:23:01;98598.78;;;0.53;100.00
55217;BME280;41086;46.736;15.666;2023-02-02T06:25:28;98616.69;;;0.65;100.00
55217;BME280;41086;46.736;15.666;2023-02-02T06:27:56;98611.47;;;0.65;100.00
55217;BME280;41086;46.736;15.666;2023-02-02T06:30:24;98616.78;;;0.62;100.00
55217;BME280;41086;46.736;15.666;2023-02-02T06:32:51;98620.19;;;0.65;100.00
55217;BME280;41086;46.736;15.666;2023-02-02T06:35:18;98627.19;;;0.63;100.00
55217;BME280;41086;46.736;15.666;2023-02-02T06:37:45;98628.66;;;0.74;100.00
55217;BME280;41086;46.736;15.666;2023-02-02T06:40:11;98626.81;;;0.77;100.00
55217;BME280;41086;46.736;15.666;2023-02-02T06:42:39;98626.72;;;0.80;100.00
55217;BME280;41086;46.736;15.666;2023-02-02T06:45:06;98642.34;;;0.82;100.00
55217;BME280;41086;46.736;15.666;2023-02-02T06:47:33;98651.78;;;0.87;100.00
55217;BME280;41086;46.736;15.666;2023-02-02T06:50:00;98663.06;;;0.88;100.00
55217;BME280;41086;46.736;15.666;2023-02-02T06:52:27;98674.31;;;0.90;100.00
55217;BME280;41086;46.736;15.666;2023-02-02T06:54:54;98689.03;;;0.93;100.00
55217;BME280;41086;46.736;15.666;2023-02-02T06:57:20;98692.50;;;0.93;100.00
55217;BME280;41086;46.736;15.666;2023-02-02T06:59:47;98694.28;;;0.91;100.00
55217;BME280;41086;46.736;15.666;2023-02-02T07:02:14;98713.28;;;0.96;100.00
55217;BME280;41086;46.736;15.666;2023-02-02T07:04:41;98713.25;;;0.98;100.00
55217;BME280;41086;46.736;15.666;2023-02-02T07:07:07;98715.06;;;0.96;100.00
55217;BME280;41086;46.736;15.666;2023-02-02T07:09:34;98710.94;;;0.87;100.00
55217;BME280;41086;46.736;15.666;2023-02-02T07:12:01;98728.13;;;0.94;100.00
55217;BME280;41086;46.736;15.666;2023-02-02T07:14:28;98740.16;;;1.00;100.00
55217;BME280;41086;46.736;15.666;2023-02-02T07:16:55;98754.94;;;1.01;100.00
55217;BME280;41086;46.736;15.666;2023-02-02T07:19:21;98758.50;;;0.97;100.00
55217;BME280;41086;46.736;15.666;2023-02-02T07:21:48;98763.72;;;0.98;100.00
55217;BME280;41086;46.736;15.666;2023-02-02T07:24:15;98770.75;;;0.95;100.00
55217;BME280;41086;46.736;15.666;2023-02-02T07:26:42;98761.56;;;0.80;100.00
55217;BME280;41086;46.736;15.666;2023-02-02T07:29:12;98752.81;;;0.81;100.00
55217;BME280;41086;46.736;15.666;2023-02-02T07:31:42;98755.44;;;0.81;100.00
55217;BME280;41086;46.736;15.666;2023-02-02T07:34:09;98738.44;;;0.64;100.00
55217;BME280;41086;46.736;15.666;2023-02-02T07:36:36;98739.44;;;0.60;100.00
55217;BME280;41086;46.736;15.666;2023-02-02T07:39:03;98746.25;;;0.66;100.00
55217;BME280;41086;46.736;15.666;2023-02-02T07:41:33;98755.66;;;0.72;100.00
55217;BME280;41086;46.736;15.666;2023-02-02T07:44:00;98758.97;;;0.78;100.00
55217;BME280;41086;46.736;15.666;2023-02-02T07:46:27;98752.81;;;0.81;100.00
55217;BME280;41086;46.736;15.666;2023-02-02T07:48:54;98746.81;;;0.79;100.00
55217;BME280;41086;46.736;15.666;2023-02-02T07:51:22;98716.75;;;0.62;100.00
55217;BME280;41086;46.736;15.666;2023-02-02T07:53:52;98733.31;;;0.61;100.00
55217;BME280;41086;46.736;15.666;2023-02-02T07:56:22;98728.00;;;0.64;100.00
55217;BME280;41086;46.736;15.666;2023-02-02T07:58:53;98724.38;;;0.70;100.00
55217;BME280;41086;46.736;15.666;2023-02-02T08:01:21;98742.44;;;0.79;100.00
55217;BME280;41086;46.736;15.666;2023-02-02T08:03:49;98742.38;;;0.81;100.00
55217;BME280;41086;46.736;15.666;2023-02-02T08:06:23;98747.31;;;0.93;100.00
55217;BME280;41086;46.736;15.666;2023-02-02T08:08:50;98757.59;;;0.99;100.00
55217;BME280;41086;46.736;15.666;2023-02-02T08:11:19;98759.09;;;1.08;100.00
55217;BME280;41086;46.736;15.666;2023-02-02T08:13:51;98737.34;;;1.07;100.00
55217;BME280;41086;46.736;15.666;2023-02-02T08:16:19;98731.19;;;1.12;100.00
55217;BME280;41086;46.736;15.666;2023-02-02T08:18:46;98738.88;;;1.16;100.00
55217;BME280;41086;46.736;15.666;2023-02-02T08:21:13;98737.06;;;1.20;100.00
55217;BME280;41086;46.736;15.666;2023-02-02T08:23:41;98743.97;;;1.21;100.00
55217;BME280;41086;46.736;15.666;2023-02-02T08:26:13;98738.50;;;1.30;100.00
55217;BME280;41086;46.736;15.666;2023-02-02T08:28:42;98762.72;;;1.35;100.00
55217;BME280;41086;46.736;15.666;2023-02-02T08:33:36;98760.97;;;1.36;100.00
55217;BME280;41086;46.736;15.666;2023-02-02T08:36:10;98764.50;;;1.35;100.00
55217;BME280;41086;46.736;15.666;2023-02-02T08:38:37;98766.09;;;1.40;100.00
55217;BME280;41086;46.736;15.666;2023-02-02T08:41:06;98768.50;;;1.46;100.00
55217;BME280;41086;46.736;15.666;2023-02-02T08:43:33;98768.47;;;1.49;100.00
55217;BME280;41086;46.736;15.666;2023-02-02T08:46:00;98758.25;;;1.40;100.00
55217;BME280;41086;46.736;15.666;2023-02-02T08:48:32;98771.09;;;1.48;100.00
55217;BME280;41086;46.736;15.666;2023-02-02T08:50:59;98777.28;;;1.44;100.00
55217;BME280;41086;46.736;15.666;2023-02-02T08:53:26;98772.88;;;1.46;100.00
55217;BME280;41086;46.736;15.666;2023-02-02T08:56:05;98771.19;;;1.45;100.00
55217;BME280;41086;46.736;15.666;2023-02-02T08:58:33;98782.50;;;1.44;100.00
55217;BME280;41086;46.736;15.666;2023-02-02T09:01:07;98782.47;;;1.47;100.00
55217;BME280;41086;46.736;15.666;2023-02-02T09:03:35;98792.66;;;1.54;100.00
55217;BME280;41086;46.736;15.666;2023-02-02T09:06:46;98785.53;;;1.61;100.00
55217;BME280;41086;46.736;15.666;2023-02-02T09:09:14;98787.97;;;1.67;100.00
55217;BME280;41086;46.736;15.666;2023-02-02T09:11:42;98796.66;;;1.68;100.00
55217;BME280;41086;46.736;15.666;2023-02-02T09:14:11;98804.94;;;1.52;100.00
55217;BME280;41086;46.736;15.666;2023-02-02T09:16:38;98803.41;;;1.44;100.00
55217;BME280;41086;46.736;15.666;2023-02-02T09:19:05;98810.09;;;1.21;100.00
55217;BME280;41086;46.736;15.666;2023-02-02T09:21:32;98812.09;;;1.12;100.00
55217;BME280;41086;46.736;15.666;2023-02-02T09:24:08;98807.72;;;1.12;100.00
55217;BME280;41086;46.736;15.666;2023-02-02T09:26:35;98813.72;;;1.16;100.00
55217;BME280;41086;46.736;15.666;2023-02-02T09:29:05;98818.94;;;1.16;100.00
55217;BME280;41086;46.736;15.666;2023-02-02T09:31:35;98822.41;;;1.16;100.00
55217;BME280;41086;46.736;15.666;2023-02-02T09:34:03;98830.16;;;1.19;100.00
55217;BME280;41086;46.736;15.666;2023-02-02T09:36:31;98833.25;;;1.35;100.00
55217;BME280;41086;46.736;15.666;2023-02-02T09:38:59;98811.34;;;1.41;100.00
55217;BME280;41086;46.736;15.666;2023-02-02T09:47:21;98831.75;;;1.59;100.00
55217;BME280;41086;46.736;15.666;2023-02-02T09:50:19;98800.47;;;1.58;100.00
55217;BME280;41086;46.736;15.666;2023-02-02T09:53:09;98824.25;;;1.47;100.00
55217;BME280;41086;46.736;15.666;2023-02-02T09:55:59;98804.44;;;1.38;100.00
55217;BME280;41086;46.736;15.666;2023-02-02T09:58:51;98798.63;;;1.60;100.00
55217;BME280;41086;46.736;15.666;2023-02-02T10:01:37;98819.72;;;1.52;100.00
55217;BME280;41086;46.736;15.666;2023-02-02T10:04:40;98815.69;;;1.42;100.00
55217;BME280;41086;46.736;15.666;2023-02-02T10:07:18;98804.41;;;1.40;100.00
55217;BME280;41086;46.736;15.666;2023-02-02T10:10:02;98796.66;;;1.37;100.00
55217;BME280;41086;46.736;15.666;2023-02-02T10:13:05;98800.84;;;1.42;100.00
55217;BME280;41086;46.736;15.666;2023-02-02T10:18:53;98802.72;;;1.37;100.00
55217;BME280;41086;46.736;15.666;2023-02-02T10:21:28;98798.91;;;1.49;100.00
55217;BME280;41086;46.736;15.666;2023-02-02T10:24:01;98813.75;;;1.48;100.00
55217;BME280;41086;46.736;15.666;2023-02-02T10:26:57;98807.56;;;1.52;100.00
55217;BME280;41086;46.736;15.666;2023-02-02T10:32:24;98798.97;;;1.47;100.00
55217;BME280;41086;46.736;15.666;2023-02-02T10:37:55;98792.38;;;1.34;100.00
55217;BME280;41086;46.736;15.666;2023-02-02T10:46:03;98763.16;;;1.52;100.00
55217;BME280;41086;46.736;15.666;2023-02-02T10:48:33;98757.63;;;1.63;100.00
55217;BME280;41086;46.736;15.666;2023-02-02T10:51:23;98770.22;;;1.80;100.00
55217;BME280;41086;46.736;15.666;2023-02-02T10:53:53;98772.69;;;1.85;100.00
55217;BME280;41086;46.736;15.666;2023-02-02T10:56:34;98775.63;;;1.74;100.00
55217;BME280;41086;46.736;15.666;2023-02-02T10:59:18;98778.16;;;1.75;100.00
55217;BME280;41086;46.736;15.666;2023-02-02T11:01:46;98765.63;;;1.88;100.00
55217;BME280;41086;46.736;15.666;2023-02-02T11:04:14;98737.72;;;1.89;100.00
55217;BME280;41086;46.736;15.666;2023-02-02T11:07:00;98744.53;;;1.94;100.00
55217;BME280;41086;46.736;15.666;2023-02-02T11:09:30;98751.91;;;1.80;100.00
55217;BME280;41086;46.736;15.666;2023-02-02T11:12:12;98767.03;;;1.69;100.00
55217;BME280;41086;46.736;15.666;2023-02-02T11:14:46;98750.03;;;1.54;100.00
55217;BME280;41086;46.736;15.666;2023-02-02T11:17:22;98754.38;;;1.55;100.00
55217;BME280;41086;46.736;15.666;2023-02-02T11:19:51;98757.78;;;1.57;100.00
55217;BME280;41086;46.736;15.666;2023-02-02T11:22:25;98747.13;;;1.65;100.00
55217;BME280;41086;46.736;15.666;2023-02-02T11:24:54;98735.19;;;1.56;100.00
55217;BME280;41086;46.736;15.666;2023-02-02T11:27:26;98749.63;;;1.68;100.00
55217;BME280;41086;46.736;15.666;2023-02-02T11:29:56;98736.41;;;1.74;100.00
55217;BME280;41086;46.736;15.666;2023-02-02T11:37:31;98716.41;;;1.73;100.00
55217;BME280;41086;46.736;15.666;2023-02-02T11:42:58;98705.31;;;1.94;100.00
55217;BME280;41086;46.736;15.666;2023-02-02T11:45:38;98704.13;;;2.05;100.00
55217;BME280;41086;46.736;15.666;2023-02-02T11:48:19;98716.06;;;2.13;100.00
55217;BME280;41086;46.736;15.666;2023-02-02T11:50:49;98715.00;;;2.19;100.00
55217;BME280;41086;46.736;15.666;2023-02-02T11:55:50;98717.63;;;2.19;100.00
55217;BME280;41086;46.736;15.666;2023-02-02T11:58:24;98709.91;;;2.14;100.00
55217;BME280;41086;46.736;15.666;2023-02-02T12:00:56;98704.56;;;2.19;100.00
55217;BME280;41086;46.736;15.666;2023-02-02T12:03:36;98657.50;;;1.91;100.00
55217;BME280;41086;46.736;15.666;2023-02-02T12:06:21;98695.72;;;2.23;100.00
55217;BME280;41086;46.736;15.666;2023-02-02T12:08:57;98686.75;;;2.30;100.00
55217;BME280;41086;46.736;15.666;2023-02-02T12:22:28;98704.25;;;2.56;100.00
55217;BME280;41086;46.736;15.666;2023-02-02T12:38:44;98692.00;;;2.83;100.00
55217;BME280;41086;46.736;15.666;2023-02-02T12:41:43;98683.19;;;2.86;100.00
55217;BME280;41086;46.736;15.666;2023-02-02T12:47:13;98704.09;;;3.13;100.00
55217;BME280;41086;46.736;15.666;2023-02-02T12:52:36;98711.38;;;3.29;100.00
55217;BME280;41086;46.736;15.666;2023-02-02T12:58:15;98725.78;;;3.41;100.00
55217;BME280;41086;46.736;15.666;2023-02-02T13:03:31;98732.44;;;3.50;100.00
55217;BME280;41086;46.736;15.666;2023-02-02T13:09:25;98726.13;;;3.55;100.00
55217;BME280;41086;46.736;15.666;2023-02-02T13:12:00;98714.91;;;3.52;100.00
55217;BME280;41086;46.736;15.666;2023-02-02T13:14:35;98726.38;;;3.73;100.00
55217;BME280;41086;46.736;15.666;2023-02-02T13:17:11;98735.84;;;3.77;100.00
55217;BME280;41086;46.736;15.666;2023-02-02T13:19:45;98735.94;;;3.74;100.00
55217;BME280;41086;46.736;15.666;2023-02-02T13:22:16;98728.78;;;3.79;100.00
55217;BME280;41086;46.736;15.666;2023-02-02T13:24:47;98736.75;;;3.76;100.00
55217;BME280;41086;46.736;15.666;2023-02-02T13:27:20;98731.63;;;3.73;100.00
55217;BME280;41086;46.736;15.666;2023-02-02T13:29:52;98728.84;;;3.77;100.00
55217;BME280;41086;46.736;15.666;2023-02-02T13:32:37;98735.25;;;3.69;100.00
55217;BME280;41086;46.736;15.666;2023-02-02T13:35:22;98733.59;;;3.66;100.00
55217;BME280;41086;46.736;15.666;2023-02-02T13:38:20;98730.03;;;3.69;100.00
55217;BME280;41086;46.736;15.666;2023-02-02T13:40:49;98736.06;;;3.71;100.00
55217;BME280;41086;46.736;15.666;2023-02-02T13:43:43;98734.47;;;3.67;100.00
55217;BME280;41086;46.736;15.666;2023-02-02T14:05:37;98733.59;;;3.66;100.00
55217;BME280;41086;46.736;15.666;2023-02-02T14:08:07;98739.59;;;3.70;100.00
55217;BME280;41086;46.736;15.666;2023-02-02T14:10:44;98722.47;;;3.61;100.00
55217;BME280;41086;46.736;15.666;2023-02-02T14:19:00;98727.63;;;3.63;100.00
55217;BME280;41086;46.736;15.666;2023-02-02T14:24:00;98737.53;;;3.54;100.00
55217;BME280;41086;46.736;15.666;2023-02-02T14:26:46;98710.97;;;3.40;100.00
55217;BME280;41086;46.736;15.666;2023-02-02T14:34:32;98732.94;;;3.36;100.00
55217;BME280;41086;46.736;15.666;2023-02-02T14:48:48;98733.75;;;3.38;100.00
55217;BME280;41086;46.736;15.666;2023-02-02T14:51:27;98746.38;;;3.27;100.00
55217;BME280;41086;46.736;15.666;2023-02-02T14:54:00;98747.13;;;3.30;100.00
55217;BME280;41086;46.736;15.666;2023-02-02T15:01:55;98742.63;;;3.09;100.00
55217;BME280;41086;46.736;15.666;2023-02-02T15:04:25;98743.97;;;3.21;100.00
55217;BME280;41086;46.736;15.666;2023-02-02T15:06:53;98747.44;;;3.21;100.00
55217;BME280;41086;46.736;15.666;2023-02-02T15:25:28;98771.75;;;3.25;100.00
55217;BME280;41086;46.736;15.666;2023-02-02T15:28:01;98771.84;;;3.23;100.00
55217;BME280;41086;46.736;15.666;2023-02-02T15:30:30;98786.00;;;3.18;100.00
55217;BME280;41086;46.736;15.666;2023-02-02T15:33:05;98789.50;;;3.17;100.00
55217;BME280;41086;46.736;15.666;2023-02-02T15:35:33;98797.69;;;3.07;100.00
55217;BME280;41086;46.736;15.666;2023-02-02T15:38:05;98790.63;;;3.09;100.00
55217;BME280;41086;46.736;15.666;2023-02-02T15:40:38;98797.56;;;3.10;100.00
55217;BME280;41086;46.736;15.666;2023-02-02T15:43:05;98808.91;;;3.11;100.00
55217;BME280;41086;46.736;15.666;2023-02-02T15:45:45;98800.94;;;3.14;100.00
55217;BME280;41086;46.736;15.666;2023-02-02T15:51:02;98818.16;;;3.21;100.00